PAL117 CYVR-RPLL
Flight info
| Callsign | PAL117 |
|---|---|
| Flight time | N/A |
| Altitude | 28000 |
| Route | UQQ DCT YZT DCT JOWEN DCT 56N142W DCT GRIZZ DCT 57N160W/N0479F300 56N170W DCT ALDOZ DCT ELLES DCT HEDMI M523 HUMSA/N0478F320 M523 IPGUD Y800 ESNIP Y810 OLDIV Y802 LIGNI Y84 BUBDO/N0477F340 A590 MUPOB Z153 POLIO POLIO1C |
| Aircraft | B77W/H-SDE1E2E3FGHIJ2J3J4J5M1RWXY/LB1D1 |
Departure
| Time | 2026-05-01 10:36 |
|---|---|
| Airport | Vancouver International Airport (CYVR) |
Arrival
| Time | N/A |
|---|---|
| Airport | Ninoy Aquino International Airport (RPLL) |
| Time | Latitude | Longitude | Altitude | Speed | Heading |
|---|---|---|---|---|---|
| 2026-05-01 10:31 | 49.19277 | -123.19672 | 27 ft | 12 kts | 259° |
| 2026-05-01 10:31 | 49.19246 | -123.19917 | 28 ft | 12 kts | 259° |
| 2026-05-01 10:32 | 49.19216 | -123.20163 | 28 ft | 12 kts | 259° |
| 2026-05-01 10:32 | 49.19201 | -123.20286 | 28 ft | 12 kts | 259° |
| 2026-05-01 10:32 | 49.19181 | -123.20531 | 28 ft | 12 kts | 278° |
| 2026-05-01 10:33 | 49.19200 | -123.20775 | 28 ft | 11 kts | 248° |
| 2026-05-01 10:33 | 49.19062 | -123.20854 | 28 ft | 8 kts | 192° |
| 2026-05-01 10:34 | 49.19018 | -123.20831 | 27 ft | 7 kts | 129° |
| 2026-05-01 10:34 | 49.19010 | -123.20796 | 28 ft | 0 kts | 100° |
| 2026-05-01 10:35 | 49.18996 | -123.20679 | 29 ft | 26 kts | 100° |
| 2026-05-01 10:35 | 49.18919 | -123.20014 | 28 ft | 101 kts | 99° |
| 2026-05-01 10:35 | 49.18758 | -123.18597 | 29 ft | 168 kts | 100° |
| 2026-05-01 10:35 | 49.18526 | -123.16644 | 306 ft | 188 kts | 103° |
| 2026-05-01 10:36 | 49.17945 | -123.12893 | 1792 ft | 182 kts | 105° |
| 2026-05-01 10:36 | 49.17673 | -123.10928 | 1961 ft | 197 kts | 101° |
| 2026-05-01 10:36 | 49.17368 | -123.08860 | 2217 ft | 203 kts | 103° |
| 2026-05-01 10:37 | 49.17354 | -123.06715 | 2388 ft | 208 kts | 70° |
| 2026-05-01 10:37 | 49.19541 | -123.04171 | 2898 ft | 210 kts | 7° |
| 2026-05-01 10:37 | 49.21013 | -123.03994 | 3136 ft | 216 kts | 353° |
| 2026-05-01 10:38 | 49.22377 | -123.04964 | 3168 ft | 227 kts | 309° |
| 2026-05-01 10:38 | 49.23014 | -123.07172 | 3310 ft | 236 kts | 273° |
| 2026-05-01 10:38 | 49.23022 | -123.09738 | 3567 ft | 247 kts | 268° |
| 2026-05-01 10:38 | 49.22986 | -123.12446 | 3834 ft | 264 kts | 268° |
| 2026-05-01 10:39 | 49.22961 | -123.15318 | 4291 ft | 273 kts | 268° |
| 2026-05-01 10:39 | 49.22955 | -123.18254 | 4881 ft | 278 kts | 269° |
| 2026-05-01 10:39 | 49.22975 | -123.21188 | 5534 ft | 280 kts | 270° |
| 2026-05-01 10:39 | 49.23113 | -123.24161 | 6264 ft | 281 kts | 276° |
| 2026-05-01 10:40 | 49.23428 | -123.27119 | 6930 ft | 282 kts | 280° |
| 2026-05-01 10:40 | 49.23898 | -123.30048 | 7513 ft | 285 kts | 284° |
| 2026-05-01 10:40 | 49.24500 | -123.33004 | 8122 ft | 289 kts | 287° |
| 2026-05-01 10:40 | 49.25180 | -123.35887 | 8686 ft | 294 kts | 289° |
| 2026-05-01 10:41 | 49.25938 | -123.38805 | 9270 ft | 297 kts | 290° |
| 2026-05-01 10:41 | 49.26748 | -123.41735 | 9885 ft | 300 kts | 291° |
| 2026-05-01 10:41 | 49.28500 | -123.47751 | 10493 ft | 326 kts | 292° |
| 2026-05-01 10:42 | 49.29476 | -123.51006 | 10653 ft | 345 kts | 292° |
| 2026-05-01 10:42 | 49.30515 | -123.54431 | 10833 ft | 363 kts | 292° |
| 2026-05-01 10:42 | 49.31608 | -123.58002 | 11258 ft | 374 kts | 292° |
| 2026-05-01 10:42 | 49.32726 | -123.61635 | 11816 ft | 380 kts | 292° |
| 2026-05-01 10:43 | 49.33860 | -123.65312 | 12504 ft | 382 kts | 292° |
| 2026-05-01 10:43 | 49.34987 | -123.68965 | 13219 ft | 384 kts | 292° |
| 2026-05-01 10:43 | 49.36131 | -123.72680 | 13910 ft | 387 kts | 292° |
| 2026-05-01 10:43 | 49.37283 | -123.76428 | 14535 ft | 390 kts | 292° |
| 2026-05-01 10:44 | 49.38441 | -123.80201 | 15152 ft | 392 kts | 292° |
| 2026-05-01 10:44 | 49.39605 | -123.84000 | 15778 ft | 394 kts | 292° |
| 2026-05-01 10:44 | 49.40774 | -123.87824 | 16395 ft | 397 kts | 292° |
| 2026-05-01 10:44 | 49.41949 | -123.91674 | 17000 ft | 399 kts | 292° |
| 2026-05-01 10:45 | 49.43132 | -123.95554 | 17617 ft | 402 kts | 292° |
| 2026-05-01 10:45 | 49.44319 | -123.99454 | 18211 ft | 405 kts | 292° |
| 2026-05-01 10:45 | 49.45468 | -124.03236 | 18713 ft | 408 kts | 292° |
| 2026-05-01 10:45 | 49.46669 | -124.07195 | 19230 ft | 410 kts | 292° |
| 2026-05-01 10:46 | 49.47881 | -124.11196 | 19739 ft | 413 kts | 292° |
| 2026-05-01 10:46 | 49.49097 | -124.15218 | 20239 ft | 416 kts | 292° |
| 2026-05-01 10:46 | 49.50318 | -124.19262 | 20755 ft | 418 kts | 292° |
| 2026-05-01 10:46 | 49.51534 | -124.23298 | 21215 ft | 422 kts | 291° |
| 2026-05-01 10:47 | 49.52772 | -124.27415 | 21667 ft | 425 kts | 291° |
| 2026-05-01 10:47 | 49.54018 | -124.31561 | 22138 ft | 428 kts | 291° |
| 2026-05-01 10:47 | 49.55271 | -124.35742 | 22633 ft | 430 kts | 291° |
| 2026-05-01 10:47 | 49.56529 | -124.39942 | 23110 ft | 433 kts | 291° |
| 2026-05-01 10:48 | 49.57790 | -124.44162 | 23569 ft | 435 kts | 291° |
| 2026-05-01 10:48 | 49.59059 | -124.48417 | 23959 ft | 438 kts | 291° |
| 2026-05-01 10:48 | 49.60333 | -124.52695 | 24349 ft | 440 kts | 291° |
| 2026-05-01 10:48 | 49.61611 | -124.56994 | 24746 ft | 441 kts | 291° |
| 2026-05-01 10:49 | 49.62893 | -124.61312 | 25159 ft | 443 kts | 291° |
| 2026-05-01 10:49 | 49.64180 | -124.65658 | 25528 ft | 445 kts | 291° |
| 2026-05-01 10:49 | 49.65451 | -124.69956 | 25900 ft | 447 kts | 291° |
| 2026-05-01 10:49 | 49.66740 | -124.74327 | 26256 ft | 449 kts | 291° |
| 2026-05-01 10:50 | 49.68037 | -124.78725 | 26610 ft | 451 kts | 291° |
| 2026-05-01 10:50 | 49.69336 | -124.83140 | 26974 ft | 453 kts | 291° |
| 2026-05-01 10:50 | 49.70644 | -124.87577 | 27293 ft | 455 kts | 292° |
| 2026-05-01 10:50 | 49.72121 | -124.91924 | 27606 ft | 459 kts | 298° |
| 2026-05-01 10:51 | 49.73835 | -124.96120 | 27918 ft | 462 kts | 299° |
| 2026-05-01 10:51 | 49.75531 | -125.00190 | 28243 ft | 463 kts | 299° |
| 2026-05-01 10:51 | 49.77270 | -125.04358 | 28554 ft | 465 kts | 299° |
| 2026-05-01 10:51 | 49.78999 | -125.08523 | 28848 ft | 466 kts | 299° |
| 2026-05-01 10:52 | 49.80747 | -125.12759 | 29123 ft | 468 kts | 299° |
| 2026-05-01 10:52 | 49.82496 | -125.17019 | 29395 ft | 469 kts | 299° |
| 2026-05-01 10:52 | 49.84248 | -125.21304 | 29728 ft | 469 kts | 299° |
| 2026-05-01 10:52 | 49.85988 | -125.25572 | 30065 ft | 469 kts | 298° |
| 2026-05-01 10:53 | 49.87732 | -125.29862 | 30085 ft | 471 kts | 298° |
| 2026-05-01 10:53 | 49.90627 | -125.36997 | 30112 ft | 469 kts | 298° |
| 2026-05-01 10:54 | 49.94656 | -125.46947 | 30116 ft | 467 kts | 298° |
| 2026-05-01 10:54 | 49.97518 | -125.54054 | 30121 ft | 467 kts | 298° |
| 2026-05-01 10:55 | 50.01538 | -125.64067 | 30126 ft | 468 kts | 298° |
| 2026-05-01 10:55 | 50.04403 | -125.71218 | 30124 ft | 468 kts | 298° |
| 2026-05-01 10:56 | 50.07849 | -125.79846 | 30141 ft | 469 kts | 298° |
| 2026-05-01 10:56 | 50.11295 | -125.88505 | 30145 ft | 470 kts | 298° |
| 2026-05-01 10:57 | 50.14717 | -125.97131 | 30150 ft | 471 kts | 298° |
| 2026-05-01 10:57 | 50.18099 | -126.05682 | 30152 ft | 471 kts | 297° |
| 2026-05-01 10:58 | 50.21543 | -126.14422 | 30148 ft | 471 kts | 297° |
| 2026-05-01 10:58 | 50.24943 | -126.23071 | 30171 ft | 470 kts | 297° |
| 2026-05-01 10:59 | 50.28350 | -126.31776 | 30163 ft | 468 kts | 297° |
| 2026-05-01 10:59 | 50.31749 | -126.40489 | 30160 ft | 469 kts | 297° |
| 2026-05-01 11:00 | 50.35143 | -126.49216 | 30182 ft | 469 kts | 297° |
| 2026-05-01 11:00 | 50.38531 | -126.57960 | 30154 ft | 469 kts | 297° |
| 2026-05-01 11:01 | 50.41881 | -126.66629 | 30182 ft | 468 kts | 297° |
| 2026-05-01 11:01 | 50.45266 | -126.75421 | 30173 ft | 471 kts | 297° |
| 2026-05-01 11:02 | 50.48658 | -126.84266 | 30176 ft | 473 kts | 297° |
| 2026-05-01 11:02 | 50.52047 | -126.93134 | 30176 ft | 472 kts | 297° |
| 2026-05-01 11:03 | 50.55347 | -127.01785 | 30169 ft | 471 kts | 297° |
| 2026-05-01 11:03 | 50.58703 | -127.10622 | 30171 ft | 470 kts | 296° |
| 2026-05-01 11:04 | 50.62050 | -127.19467 | 30170 ft | 469 kts | 296° |
| 2026-05-01 11:04 | 50.65382 | -127.28300 | 30184 ft | 468 kts | 296° |
| 2026-05-01 11:05 | 50.68827 | -127.37099 | 30182 ft | 477 kts | 301° |
| 2026-05-01 11:05 | 50.73072 | -127.45217 | 30188 ft | 486 kts | 307° |
| 2026-05-01 11:06 | 50.77536 | -127.53298 | 30168 ft | 488 kts | 307° |
| 2026-05-01 11:06 | 50.81983 | -127.61421 | 30178 ft | 488 kts | 306° |
| 2026-05-01 11:07 | 50.88566 | -127.73598 | 30166 ft | 486 kts | 306° |
| 2026-05-01 11:07 | 50.92946 | -127.81753 | 30164 ft | 485 kts | 306° |
| 2026-05-01 11:08 | 50.97306 | -127.89896 | 30194 ft | 483 kts | 306° |
| 2026-05-01 11:09 | 51.03753 | -128.01981 | 30171 ft | 482 kts | 306° |
| 2026-05-01 11:09 | 51.08088 | -128.10140 | 29598 ft | 482 kts | 307° |
| 2026-05-01 11:10 | 51.12384 | -128.18250 | 30178 ft | 484 kts | 306° |
| 2026-05-01 11:10 | 51.14553 | -128.22355 | 30197 ft | 484 kts | 306° |
| 2026-05-01 11:10 | 51.18878 | -128.30556 | 30176 ft | 483 kts | 306° |
| 2026-05-01 11:11 | 51.23186 | -128.38753 | 30174 ft | 482 kts | 305° |
| 2026-05-01 11:11 | 51.27489 | -128.46965 | 30178 ft | 481 kts | 305° |
| 2026-05-01 11:12 | 51.31748 | -128.55123 | 30183 ft | 481 kts | 306° |
| 2026-05-01 11:12 | 51.36046 | -128.63382 | 30201 ft | 484 kts | 306° |
| 2026-05-01 11:13 | 51.40363 | -128.71705 | 30186 ft | 487 kts | 306° |
| 2026-05-01 11:13 | 51.44677 | -128.80047 | 30188 ft | 489 kts | 305° |
| 2026-05-01 11:14 | 51.49014 | -128.88459 | 30197 ft | 490 kts | 306° |
| 2026-05-01 11:14 | 51.53348 | -128.96892 | 30190 ft | 489 kts | 306° |
| 2026-05-01 11:15 | 51.57612 | -129.05217 | 30180 ft | 488 kts | 306° |
| 2026-05-01 11:15 | 51.61913 | -129.13642 | 30177 ft | 486 kts | 306° |
| 2026-05-01 11:16 | 51.66171 | -129.22014 | 30201 ft | 485 kts | 306° |
| 2026-05-01 11:16 | 51.70446 | -129.30445 | 30193 ft | 485 kts | 306° |
| 2026-05-01 11:17 | 51.74712 | -129.38885 | 30189 ft | 485 kts | 306° |
| 2026-05-01 11:17 | 51.78972 | -129.47341 | 30191 ft | 485 kts | 306° |
| 2026-05-01 11:18 | 51.83227 | -129.55817 | 30191 ft | 485 kts | 306° |
| 2026-05-01 11:18 | 51.87454 | -129.64265 | 30193 ft | 486 kts | 306° |
| 2026-05-01 11:19 | 51.91704 | -129.72787 | 30193 ft | 486 kts | 306° |
| 2026-05-01 11:19 | 51.95958 | -129.81343 | 30195 ft | 487 kts | 306° |
| 2026-05-01 11:20 | 52.00196 | -129.89899 | 30206 ft | 487 kts | 306° |
| 2026-05-01 11:20 | 52.04439 | -129.98493 | 30200 ft | 488 kts | 306° |
| 2026-05-01 11:21 | 52.08587 | -130.06921 | 30200 ft | 488 kts | 306° |
| 2026-05-01 11:21 | 52.12822 | -130.15555 | 30202 ft | 488 kts | 306° |
| 2026-05-01 11:22 | 52.17054 | -130.24213 | 30211 ft | 488 kts | 306° |
| 2026-05-01 11:22 | 52.21277 | -130.32883 | 30203 ft | 489 kts | 306° |
| 2026-05-01 11:23 | 52.25502 | -130.41584 | 30201 ft | 489 kts | 306° |
| 2026-05-01 11:23 | 52.29694 | -130.50248 | 30205 ft | 489 kts | 306° |
| 2026-05-01 11:24 | 52.33910 | -130.58992 | 30217 ft | 489 kts | 306° |
| 2026-05-01 11:25 | 52.38796 | -130.69164 | 30216 ft | 489 kts | 306° |